Flight Track Log - Related Links

Times and Time Zones

All times are in EDT time to prevent confusion due to time zone crossing. See the EJM20 flight status page for this flight to view local times or setup timezone preferences in your user account.

Time Position Orientation Groundspeed Altitude Reporting Facility
EDT Latitude Longitude Course Direction KTS MPH feet Rate Location/Type
Tue 09:55:20 PM 39.4144 -74.7078 270° West 228 262 4,600  Level Washington Center
Tue 09:56:19 PM 39.3669 -74.7861 232° Southwest 261 300 7,100 2,136 Climbing Washington Center
Tue 09:57:18 PM 39.3133 -74.8700 230° Southwest 287 330 8,800 1,850 Climbing Washington Center
Tue 09:58:19 PM 39.2617 -74.9589 233° Southwest 305 351 10,800 1,736 Climbing Washington Center
Tue 09:59:00 PM 39.2333 -75.2665 270° West  Level FlightAware Approximate
Tue 09:59:19 PM 39.2539 -75.0742 265° West 305 351 12,300  Level Washington Center
Tue 10:00:00 PM 39.2333 -75.4254 270° West  Level FlightAware Approximate
Tue 10:00:19 PM 39.2481 -75.1950 266° West 329 379 13,800  Level Washington Center
Tue 10:01:20 PM 39.2422 -75.3208 267° West 344 396 15,300 1,091 Climbing Washington Center
Tue 10:02:20 PM 39.2364 -75.4522 267° West 362 417 16,000 350 Climbing Washington Center
Tue 10:03:20 PM 39.2239 -75.5917 263° West 375 432 16,000 51 Level Washington Center
Tue 10:04:18 PM 39.2072 -75.7389 262° West 403 464 16,100 814 Climbing Washington Center
Tue 10:05:18 PM 39.1922 -75.8781 262° West 410 472 17,600 1,488 Climbing Washington Center
Tue 10:06:19 PM 39.1772 -76.0200 262° West 405 466 19,100 1,488 Climbing Washington Center
Tue 10:07:19 PM 39.1622 -76.1511 262° West 399 459 20,600 1,563 Climbing Washington Center
Tue 10:08:18 PM 39.1531 -76.2981 265° West 386 444 22,200 1,550 Climbing Washington Center
Tue 10:09:19 PM 39.1586 -76.4294 273° West 378 435 23,700 1,488 Climbing Washington Center
Tue 10:10:19 PM 39.1658 -76.5553 274° West 371 427 25,200 1,500 Climbing Washington Center
Tue 10:11:19 PM 39.1586 -76.6836 266° West 365 420 26,700 1,488 Climbing Washington Center
Tue 10:12:20 PM 39.1011 -76.8006 238° Southwest 372 428 28,200 1,488 Climbing Washington Center
Tue 10:13:20 PM 39.0417 -76.9172 237° Southwest 377 434 29,700 1,513 Climbing Washington Center
Tue 10:14:19 PM 38.9839 -77.0283 236° Southwest 383 441 31,200 1,513 Climbing Washington Center
Tue 10:15:19 PM 38.9264 -77.1447 238° Southwest 388 447 32,700 1,488 Climbing Washington Center
Tue 10:16:20 PM 38.8686 -77.2581 237° Southwest 388 447 34,200 1,438 Climbing Washington Center
Tue 10:17:20 PM 38.8106 -77.3686 236° Southwest 388 447 35,600 1,169 Climbing Washington Center
Tue 10:18:18 PM 38.7506 -77.4817 236° Southwest 388 447 36,500 864 Climbing Washington Center
Tue 10:19:18 PM 38.6947 -77.5839 235° Southwest 394 453 37,300 750 Climbing Washington Center
Tue 10:20:18 PM 38.6386 -77.7019 239° Southwest 399 459 38,000 694 Climbing Washington Center
Tue 10:21:19 PM 38.5758 -77.8250 237° Southwest 405 466 38,700 689 Climbing Washington Center
Tue 10:22:20 PM 38.5131 -77.9506 237° Southwest 410 472 39,400 541 Climbing Washington Center
Tue 10:23:21 PM 38.4458 -78.0783 236° Southwest 421 484 39,800 303 Climbing Washington Center
Tue 10:24:19 PM 38.3783 -78.2058 236° Southwest 432 497 40,000 101 Climbing Washington Center
Tue 10:25:20 PM 38.3064 -78.3461 237° Southwest 452 520 40,000  Level Washington Center
Tue 10:26:18 PM 38.2322 -78.4861 236° Southwest 476 548 40,000  Level Washington Center
Tue 10:27:18 PM 38.1619 -78.6289 238° Southwest 481 554 40,000  Level Washington Center
Tue 10:28:20 PM 38.0744 -78.7914 236° Southwest 497 572 40,000  Level Washington Center
Tue 10:29:18 PM 37.9975 -78.9356 236° Southwest 497 572 40,000  Level Washington Center
Tue 10:30:18 PM 37.9158 -79.0847 235° Southwest 504 580 40,000  Level Washington Center
Tue 10:31:19 PM 37.8494 -79.2211 238° Southwest 504 580 40,000  Level Washington Center
Tue 10:32:20 PM 37.7736 -79.3725 238° Southwest 509 586 40,000  Level Washington Center
Tue 10:33:20 PM 37.6958 -79.5208 237° Southwest 514 592 40,000  Level Washington Center
Tue 10:34:18 PM 37.6133 -79.6842 238° Southwest 514 592 40,000  Level Washington Center
Tue 10:35:20 PM 37.5461 -79.8169 237° Southwest 507 583 40,000  Level Washington Center
Tue 10:36:20 PM 37.4717 -79.9725 239° Southwest 514 592 40,000  Level Washington Center
Tue 10:37:44 PM 37.3514 -80.1986 236° Southwest 516 594 40,000  Level Atlanta Center
Tue 10:38:44 PM 37.2789 -80.3431 238° Southwest 511 588 40,000  Level Atlanta Center
Tue 10:39:44 PM 37.2017 -80.4872 236° Southwest 505 581 40,000  Level Atlanta Center
Tue 10:40:44 PM 37.1267 -80.6339 237° Southwest 505 581 40,000  Level Atlanta Center
Tue 10:41:44 PM 37.0636 -80.7667 239° Southwest 505 581 40,000  Level Atlanta Center
Tue 10:42:44 PM 37.0008 -80.9175 243° Southwest 500 575 40,000  Level Atlanta Center
Tue 10:43:44 PM 36.9358 -81.0681 242° Southwest 495 570 40,000  Level Atlanta Center
Tue 10:44:44 PM 36.8667 -81.2314 242° Southwest 495 570 40,000  Level Atlanta Center
Tue 10:45:44 PM 36.8033 -81.3842 243° Southwest 495 570 40,000  Level Atlanta Center
Tue 10:46:44 PM 36.7539 -81.5153 245° Southwest 476 548 40,000  Level Atlanta Center
Tue 10:47:44 PM 36.6800 -81.6806 241° Southwest 483 556 40,000  Level Atlanta Center
Tue 10:48:44 PM 36.6219 -81.8117 241° Southwest 483 556 40,000  Level Atlanta Center
Tue 10:49:44 PM 36.5578 -81.9608 242° Southwest 483 556 40,000  Level Atlanta Center
Tue 10:50:44 PM 36.4936 -82.1122 242° Southwest 483 556 40,000  Level Atlanta Center
Tue 10:51:44 PM 36.4269 -82.2608 241° Southwest 488 562 40,000  Level Atlanta Center
Tue 10:52:44 PM 36.3625 -82.4119 242° Southwest 494 568 40,000  Level Atlanta Center
Tue 10:53:44 PM 36.2956 -82.5628 241° Southwest 499 574 40,000  Level Atlanta Center
Tue 10:54:44 PM 36.2283 -82.7131 241° Southwest 504 580 40,000  Level Atlanta Center
Tue 10:55:44 PM 36.1611 -82.8661 241° Southwest 504 580 40,000  Level Atlanta Center
Tue 10:56:44 PM 36.0958 -83.0161 242° Southwest 504 580 40,000  Level Atlanta Center
Tue 10:57:44 PM 36.0239 -83.1786 241° Southwest 504 580 40,000  Level Atlanta Center
Tue 10:58:44 PM 35.9581 -83.3256 241° Southwest 497 572 40,000  Level Atlanta Center
Tue 10:59:44 PM 35.8922 -83.4722 241° Southwest 497 572 40,000  Level Atlanta Center
Tue 11:00:44 PM 35.8261 -83.6214 241° Southwest 497 572 40,000  Level Atlanta Center
Tue 11:01:44 PM 35.7575 -83.7675 240° Southwest 503 579 40,000  Level Atlanta Center
Tue 11:02:44 PM 35.6889 -83.9186 241° Southwest 503 579 40,000  Level Atlanta Center
Tue 11:03:45 PM 35.6203 -84.0694 241° Southwest 509 586 40,000  Level Atlanta Center
Tue 11:04:44 PM 35.5511 -84.2175 240° Southwest 504 580 40,000  Level Atlanta Center
Tue 11:05:44 PM 35.4822 -84.3678 241° Southwest 509 586 40,000  Level Atlanta Center
Tue 11:06:44 PM 35.4147 -84.5153 241° Southwest 504 580 40,000  Level Atlanta Center
Tue 11:07:44 PM 35.3475 -84.6625 241° Southwest 504 580 40,000  Level Atlanta Center
Tue 11:08:44 PM 35.2778 -84.8097 240° Southwest 504 580 40,000  Level Atlanta Center
Tue 11:09:44 PM 35.2206 -84.9286 240° Southwest 504 580 40,000  Level Atlanta Center
Tue 11:10:44 PM 35.1464 -85.0903 241° Southwest 504 580 40,000  Level Atlanta Center
Tue 11:11:44 PM 35.0781 -85.2367 240° Southwest 504 580 40,000  Level Atlanta Center
Tue 11:12:44 PM 35.0100 -85.3778 240° Southwest 504 580 40,000  Level Atlanta Center
Tue 11:13:44 PM 34.9436 -85.5236 241° Southwest 504 580 40,000  Level Atlanta Center
Tue 11:14:44 PM 34.8728 -85.6717 240° Southwest 504 580 40,000  Level Atlanta Center
Tue 11:15:44 PM 34.8042 -85.8147 240° Southwest 504 580 40,000  Level Atlanta Center
Tue 11:16:44 PM 34.7267 -85.9672 238° Southwest 499 574 40,000  Level Atlanta Center
Tue 11:17:44 PM 34.6575 -86.1119 240° Southwest 499 574 40,000  Level Atlanta Center
Tue 11:18:44 PM 34.5861 -86.2542 239° Southwest 499 574 40,000  Level Atlanta Center
Tue 11:19:44 PM 34.5167 -86.4008 240° Southwest 505 581 40,000  Level Atlanta Center
Tue 11:20:44 PM 34.4450 -86.5450 239° Southwest 505 581 40,000  Level Atlanta Center
Tue 11:21:52 PM 34.3631 -86.7064 238° Southwest 510 587 40,000  Level Memphis Center
Tue 11:22:52 PM 34.2922 -86.8500 239° Southwest 510 587 40,000  Level Memphis Center
Tue 11:23:52 PM 34.2192 -87.0039 240° Southwest 520 598 40,000  Level Memphis Center
Tue 11:24:52 PM 34.1497 -87.1444 239° Southwest 507 583 40,000  Level Memphis Center
Tue 11:25:52 PM 34.0803 -87.2775 238° Southwest 485 558 40,000  Level Memphis Center
Tue 11:26:52 PM 34.0086 -87.4206 239° Southwest 499 574 40,000  Level Memphis Center
Tue 11:27:52 PM 33.9325 -87.5658 238° Southwest 505 581 40,000  Level Memphis Center
Tue 11:28:52 PM 33.8647 -87.7056 240° Southwest 505 581 40,000  Level Memphis Center
Tue 11:29:52 PM 33.8028 -87.8375 241° Southwest 514 592 40,000  Level Memphis Center
Tue 11:30:52 PM 33.7328 -87.9942 242° Southwest 519 597 40,000  Level Memphis Center
Tue 11:31:52 PM 33.6686 -88.1383 242° Southwest 513 590 40,000  Level Memphis Center
Tue 11:32:52 PM 33.6003 -88.2847 241° Southwest 508 585 40,000  Level Memphis Center
Tue 11:33:52 PM 33.5317 -88.4458 243° Southwest 508 585 40,000  Level Memphis Center
Tue 11:34:52 PM 33.4731 -88.5717 241° Southwest 500 575 40,000  Level Memphis Center
Tue 11:35:52 PM 33.4061 -88.7122 240° Southwest 494 568 40,000  Level Memphis Center
Tue 11:36:52 PM 33.3392 -88.8553 241° Southwest 494 568 40,000  Level Memphis Center
Tue 11:37:52 PM 33.2761 -88.9981 242° Southwest 489 563 40,000  Level Memphis Center
Tue 11:38:52 PM 33.2086 -89.1381 240° Southwest 489 563 40,000  Level Memphis Center
Tue 11:39:52 PM 33.1411 -89.2806 241° Southwest 489 563 40,000  Level Memphis Center
Tue 11:40:52 PM 33.0753 -89.4178 240° Southwest 489 563 40,000  Level Memphis Center
Tue 11:41:52 PM 33.0097 -89.5594 241° Southwest 489 563 40,000  Level Memphis Center
Tue 11:42:52 PM 32.9394 -89.6989 239° Southwest 494 568 40,000  Level Memphis Center
Tue 11:43:52 PM 32.8711 -89.8428 241° Southwest 502 578 40,000  Level Memphis Center
Tue 11:44:52 PM 32.7944 -90.0039 241° Southwest 513 590 40,000  Level Memphis Center
Tue 11:45:52 PM 32.7281 -90.1450 241° Southwest 502 578 40,000  Level Memphis Center
Tue 11:46:52 PM 32.6594 -90.2883 240° Southwest 502 578 40,000  Level Memphis Center
Tue 11:47:52 PM 32.5906 -90.4289 240° Southwest 502 578 40,000  Level Memphis Center
Tue 11:48:52 PM 32.5297 -90.5544 240° Southwest 502 578 40,000  Level Memphis Center
Tue 11:50:56 PM 32.3872 -90.8486 240° Southwest 495 570 40,000  Level Houston Center
Tue 11:51:56 PM 32.3178 -90.9911 240° Southwest 502 578 40,000  Level Houston Center
Tue 11:52:57 PM 32.2472 -91.1319 239° Southwest 502 578 40,000  Level Houston Center
Tue 11:53:57 PM 32.1772 -91.2739 240° Southwest 502 578 40,000  Level Houston Center
Tue 11:54:58 PM 32.1067 -91.4150 239° Southwest 503 579 40,000  Level Houston Center
Tue 11:55:58 PM 32.0361 -91.5567 240° Southwest 502 578 40,000  Level Houston Center
Tue 11:56:59 PM 31.9661 -91.6992 240° Southwest 503 579 40,000  Level Houston Center
Tue 11:57:59 PM 31.8942 -91.8419 239° Southwest 507 583 40,000  Level Houston Center
Tue 11:58:59 PM 31.8208 -91.9864 239° Southwest 513 590 40,000  Level Houston Center
Wed 12:00:00 AM 31.7411 -92.1267 236° Southwest 522 601 40,000  Level Houston Center
Wed 12:01:00 AM 31.6711 -92.2711 240° Southwest 512 589 40,000  Level Houston Center
Wed 12:02:01 AM 31.5992 -92.4133 239° Southwest 509 586 40,000  Level Houston Center
Wed 12:03:01 AM 31.5283 -92.5553 240° Southwest 506 582 40,000  Level Houston Center
Wed 12:04:01 AM 31.4583 -92.6978 240° Southwest 506 582 40,000  Level Houston Center
Wed 12:05:02 AM 31.3833 -92.8358 238° Southwest 498 573 40,000  Level Houston Center
Wed 12:06:02 AM 31.3106 -92.9767 239° Southwest 502 578 40,000  Level Houston Center
Wed 12:07:03 AM 31.2239 -93.1464 239° Southwest 508 585 40,000  Level Houston Center
Wed 12:08:03 AM 31.1369 -93.2731 231° Southwest 504 580 40,000  Level Houston Center
Wed 12:09:03 AM 31.0481 -93.3981 230° Southwest 503 579 40,000 -50 Level Houston Center
Wed 12:10:04 AM 30.9578 -93.5222 230° Southwest 504 580 39,900 -843 Descending Houston Center
Wed 12:11:04 AM 30.8683 -93.6444 230° Southwest 501 577 38,300 -1,600 Descending Houston Center
Wed 12:12:04 AM 30.7814 -93.7650 230° Southwest 496 571 36,700 -2,033 Descending Houston Center
Wed 12:13:05 AM 30.6908 -93.8875 229° Southwest 504 580 34,200 -2,479 Descending Houston Center
Wed 12:14:05 AM 30.6031 -94.0089 230° Southwest 499 574 31,700 -2,350 Descending Houston Center
Wed 12:15:05 AM 30.5147 -94.1269 229° Southwest 492 566 29,500 -2,331 Descending Houston Center
Wed 12:16:06 AM 30.4292 -94.2450 230° Southwest 483 556 27,000 -2,564 Descending Houston Center
Wed 12:17:02 AM 30.3389 -94.3631 228° Southwest 476 548 24,500 -2,638 Descending Houston Center
Wed 12:18:02 AM 30.2586 -94.4850 233° Southwest 456 525 21,900 -2,529 Descending Houston Center
Wed 12:19:03 AM 30.1900 -94.6003 235° Southwest 444 511 19,400 -2,628 Descending Houston Center
Wed 12:20:03 AM 30.1192 -94.7156 235° Southwest 427 491 16,600 -2,678 Descending Houston Center
Wed 12:21:04 AM 30.0536 -94.8231 235° Southwest 406 467 14,000 -2,544 Descending Houston Center
Wed 12:22:08 AM 29.9928 -94.9219 235° Southwest 389 448 11,300 -1,935 Descending Houston Center
Wed 12:23:08 AM 29.9389 -95.0086 234° Southwest 336 387 10,000 -1,650 Descending Houston Center
Wed 12:24:08 AM 29.8925 -95.0833 234° Southwest 289 333 8,000 -1,537 Descending Houston Center
Wed 12:25:09 AM 29.8475 -95.1561 235° Southwest 282 325 6,900 -1,289 Descending Houston Center
Wed 12:26:09 AM 29.8072 -95.2200 234° Southwest 253 291 5,400 -1,600 Descending Houston Center
Wed 12:27:09 AM 29.7722 -95.2856 238° Southwest 246 283 3,700 -1,800 Descending Houston Center
Wed 12:28:09 AM 29.7522 -95.3456 249° West 213 245 1,800 -1,250 Descending Houston Center
Wed 12:29:09 AM 29.7108 -95.3544 191° South 144 166 1,200 -347 Descending Houston Center
Wed 12:30:10 AM 29.6875 -95.3292 137° Southeast 140 161 1,100 -347 Descending Houston Center
Wed 12:31:10 AM 29.6633 -95.3006 134° Southeast 128 147 500 -446 Descending Houston Center
Wed 12:32:11 AM 29.6344 -95.2664 134° Southeast 127 146 200 -295 Descending Houston Center

Login

Don't have an account? Register now (free) for customized features, flight alerts, and more!